.
WxDataArchive / Data Records for 2012-07-11
2012-07-10 July 2012 2012-07-12

Data Records for Wednesday, 11 July 2012

Time	Temp	Chill	HIndex	Humid	Dewpt	 Wind 	HiWind	WindDir	Rain 	Barom 
-----	----	-----	------	-----	-----	------	------	-------	-----	----- 
00:00	71.1	71.1	71.1	51	52.0	0	1	68	0.00	30.066 
00:05	70.9	70.9	70.9	52	52.4	0	1	68	0.00	30.066 
00:10	70.6	70.6	70.6	53	52.6	0	0	---	0.00	30.066 
00:15	70.3	70.3	70.3	53	52.3	0	1	68	0.00	30.068 
00:20	70.1	70.1	70.1	53	52.2	0	1	68	0.00	30.068 
00:25	69.9	69.9	69.9	54	52.5	0	0	---	0.00	30.068 
00:30	69.6	69.6	69.6	54	52.2	0	1	68	0.00	30.070 
00:35	69.4	69.4	69.4	54	52.0	0	1	68	0.00	30.070 
00:40	69.4	69.4	69.4	54	52.0	0	1	68	0.00	30.070 
00:45	69.3	69.3	69.3	54	51.9	1	2	68	0.00	30.072 
00:50	69.3	69.3	69.3	54	51.9	0	2	68	0.00	30.072 
00:55	69.1	69.1	69.1	55	52.2	0	2	68	0.00	30.072 
01:00	68.9	68.9	68.9	55	52.1	1	3	68	0.00	30.073 
01:05	68.9	68.9	68.9	56	52.5	1	2	68	0.00	30.073 
01:10	68.8	68.8	68.8	56	52.5	1	2	68	0.00	30.073 
01:15	68.6	68.6	68.6	56	52.3	0	3	68	0.00	30.075 
01:20	68.4	68.4	68.4	57	52.6	1	3	68	0.00	30.075 
01:25	68.3	68.3	68.3	57	52.5	1	3	68	0.00	30.075 
01:30	68.1	68.1	68.1	57	52.3	0	1	68	0.00	30.080 
01:35	67.9	67.9	67.9	57	52.1	0	2	68	0.00	30.080 
01:40	67.8	67.8	67.8	57	52.0	0	3	68	0.00	30.080 
01:45	67.8	67.8	67.8	57	52.0	0	2	68	0.00	30.081 
01:50	67.6	67.6	67.6	58	52.3	0	1	68	0.00	30.081 
01:55	67.4	67.4	67.4	58	52.1	0	1	68	0.00	30.081 
02:00	67.3	67.3	67.3	58	52.0	0	1	68	0.00	30.086 
02:05	66.9	66.9	66.9	59	52.1	0	1	68	0.00	30.086 
02:10	66.8	66.8	66.8	59	52.0	0	1	68	0.00	30.086 
02:15	66.6	66.6	66.6	60	52.3	0	1	68	0.00	30.087 
02:20	66.4	66.4	66.4	61	52.5	0	1	68	0.00	30.087 
02:25	66.3	66.3	66.3	61	52.4	0	1	68	0.00	30.087 
02:30	66.1	66.1	66.1	62	52.7	0	1	68	0.00	30.086 
02:35	66.0	66.0	66.0	62	52.6	0	1	68	0.00	30.086 
02:40	65.8	65.8	65.8	62	52.4	0	1	68	0.00	30.086 
02:45	65.8	65.8	65.8	62	52.4	0	1	68	0.00	30.086 
02:50	65.6	65.6	65.6	62	52.2	0	1	68	0.00	30.086 
02:55	65.6	65.6	65.6	62	52.2	0	1	68	0.00	30.086 
03:00	65.5	65.5	65.5	62	52.1	0	1	68	0.00	30.089 
03:05	65.5	65.5	65.5	63	52.6	0	0	---	0.00	30.089 
03:10	65.3	65.3	65.3	63	52.4	0	0	---	0.00	30.089 
03:15	65.2	65.2	65.2	63	52.3	0	0	---	0.00	30.089 
03:20	65.0	65.0	65.0	63	52.1	0	0	---	0.00	30.089 
03:25	64.8	64.8	64.8	63	51.9	0	1	68	0.00	30.089 
03:30	64.8	64.8	64.8	63	51.9	0	1	68	0.00	30.088 
03:35	64.8	64.8	64.8	63	51.9	0	1	68	0.00	30.088 
03:40	64.8	64.8	64.8	63	51.9	0	1	68	0.00	30.088 
03:45	64.8	64.8	64.8	63	51.9	0	2	68	0.00	30.089 
03:50	64.7	64.7	64.7	63	51.8	0	1	68	0.00	30.089 
03:55	64.7	64.7	64.7	64	52.2	0	0	---	0.00	30.089 
04:00	64.7	64.7	64.7	65	52.7	0	0	---	0.00	30.089 
04:05	64.5	64.5	64.5	65	52.5	0	0	---	0.00	30.089 
04:10	64.5	64.5	64.5	66	52.9	0	1	68	0.00	30.089 
04:15	64.3	64.3	64.3	66	52.7	0	0	---	0.00	30.089 
04:20	64.2	64.2	64.2	67	53.0	0	0	---	0.00	30.089 
04:25	64.0	64.0	64.0	67	52.8	0	1	68	0.00	30.089 
04:30	64.0	64.0	64.0	67	52.8	0	2	68	0.00	30.089 
04:35	64.0	64.0	64.0	67	52.8	0	1	68	0.00	30.089 
04:40	64.0	64.0	64.0	67	52.8	0	0	---	0.00	30.089 
04:45	63.9	63.9	63.9	68	53.1	0	1	68	0.00	30.090 
04:50	63.7	63.7	63.7	69	53.3	0	0	---	0.00	30.090 
04:55	63.7	63.7	63.7	69	53.3	0	0	---	0.00	30.090 
05:00	63.5	63.5	63.5	69	53.1	0	0	---	0.00	30.089 
05:05	63.5	63.5	63.5	69	53.1	0	0	---	0.00	30.089 
05:10	63.4	63.4	63.4	69	53.0	0	0	---	0.00	30.089 
05:15	63.4	63.4	63.4	70	53.4	0	0	---	0.00	30.095 
05:20	63.4	63.4	63.4	70	53.4	0	0	---	0.00	30.095 
05:25	63.4	63.4	63.4	71	53.8	0	0	---	0.00	30.095 
05:30	63.2	63.2	63.2	71	53.6	0	0	---	0.00	30.100 
05:35	63.2	63.2	63.2	72	54.0	0	0	---	0.00	30.100 
05:40	63.2	63.2	63.2	72	54.0	0	0	---	0.00	30.100 
05:45	63.2	63.2	63.2	73	54.4	0	0	---	0.00	30.104 
05:50	63.2	63.2	63.2	73	54.4	0	0	---	0.00	30.104 
05:55	63.1	63.1	63.1	74	54.7	0	0	---	0.00	30.104 
06:00	63.2	63.2	63.2	74	54.8	0	1	68	0.00	30.107 
06:05	63.2	63.2	63.2	74	54.8	0	0	---	0.00	30.107 
06:10	63.2	63.2	63.2	74	54.8	0	0	---	0.00	30.107 
06:15	63.2	63.2	63.2	74	54.8	0	1	68	0.00	30.109 
06:20	63.2	63.2	63.2	75	55.1	0	0	---	0.00	30.109 
06:25	63.2	63.2	63.2	75	55.1	0	1	68	0.00	30.109 
06:30	63.2	63.2	63.2	75	55.1	0	2	68	0.00	30.110 
06:35	63.4	63.4	63.4	75	55.3	0	2	68	0.00	30.110 
06:40	63.4	63.4	63.4	75	55.3	1	2	68	0.00	30.110 
06:45	63.4	63.4	63.4	75	55.3	1	2	68	0.00	30.110 
06:50	63.5	63.5	63.5	75	55.4	1	3	68	0.00	30.110 
06:55	63.5	63.5	63.5	75	55.4	1	3	338	0.00	30.110 
07:00	63.7	63.7	63.7	76	56.0	0	1	0	0.00	30.109 
07:05	63.9	63.9	63.9	76	56.2	0	2	0	0.00	30.109 
07:10	64.0	64.0	64.0	76	56.3	1	3	0	0.00	30.109 
07:15	64.3	64.3	64.3	75	56.2	1	4	90	0.00	30.112 
07:20	64.5	64.5	64.5	75	56.4	1	3	90	0.00	30.112 
07:25	64.8	64.8	64.8	75	56.7	1	4	90	0.00	30.112 
07:30	65.3	65.3	65.3	74	56.8	1	5	112	0.00	30.112 
07:35	66.0	66.0	66.0	73	57.1	1	4	112	0.00	30.112 
07:40	66.4	66.4	66.4	72	57.1	2	6	112	0.00	30.112 
07:45	67.1	67.1	67.1	70	57.0	2	5	68	0.00	30.117 
07:50	67.4	67.4	67.4	70	57.3	3	7	90	0.00	30.117 
07:55	67.8	67.8	67.8	69	57.2	3	9	112	0.00	30.117 
08:00	68.1	68.1	68.1	68	57.1	2	6	90	0.00	30.118 
08:05	68.6	68.6	68.6	66	56.8	3	7	90	0.00	30.118 
08:10	69.1	69.1	69.1	66	57.3	2	5	90	0.00	30.118 
08:15	69.8	69.8	69.8	65	57.5	2	5	90	0.00	30.120 
08:20	70.3	70.3	70.3	63	57.1	1	5	90	0.00	30.120 
08:25	70.6	70.6	70.6	61	56.5	3	6	90	0.00	30.120 
08:30	70.6	70.6	70.6	61	56.5	3	7	90	0.00	30.121 
08:35	70.8	70.8	70.8	60	56.2	3	9	90	0.00	30.121 
08:40	71.1	71.1	71.1	60	56.5	2	5	112	0.00	30.121 
08:45	71.6	71.6	71.6	58	56.0	2	6	112	0.00	30.120 
08:50	72.3	72.3	72.3	58	56.7	2	5	112	0.00	30.120 
08:55	72.7	72.7	72.7	56	56.1	3	5	112	0.00	30.120 
09:00	72.7	72.7	72.7	56	56.1	3	6	90	0.00	30.120 
09:05	73.3	73.3	73.3	56	56.6	2	7	90	0.00	30.120 
09:10	73.9	73.9	73.9	53	55.7	2	5	90	0.00	30.120 
09:15	74.2	74.2	74.2	53	56.0	3	8	90	0.00	30.121 
09:20	74.2	74.2	74.2	53	56.0	3	9	90	0.00	30.121 
09:25	73.9	73.9	73.9	53	55.7	4	10	90	0.00	30.121 
09:30	74.0	74.0	74.0	54	56.3	2	6	90	0.00	30.122 
09:35	74.7	74.7	74.7	52	55.9	2	5	112	0.00	30.122 
09:40	75.1	75.1	77.7	51	55.7	3	6	90	0.00	30.122 
09:45	75.3	75.3	77.7	51	55.9	3	6	90	0.00	30.124 
09:50	75.8	75.8	78.0	50	55.8	2	9	90	0.00	30.124 
09:55	76.5	76.5	78.3	48	55.3	2	5	90	0.00	30.124 
10:00	77.0	77.0	78.5	48	55.8	2	6	90	0.00	30.126 
10:05	77.2	77.2	78.6	47	55.4	3	7	90	0.00	30.126 
10:10	77.6	77.6	78.8	46	55.2	2	5	68	0.00	30.126 
10:15	77.9	77.9	78.9	45	54.8	2	5	112	0.00	30.123 
10:20	78.6	78.6	79.4	46	56.1	2	6	112	0.00	30.123 
10:25	78.8	78.8	79.4	43	54.4	3	7	112	0.00	30.123 
10:30	79.2	79.2	79.6	43	54.7	2	4	90	0.00	30.124 
10:35	79.4	79.4	79.8	44	55.6	3	7	112	0.00	30.124 
10:40	79.4	79.4	79.8	44	55.6	3	6	90	0.00	30.124 
10:45	79.6	79.6	79.7	41	53.8	3	6	90	0.00	30.123 
10:50	79.9	79.9	79.9	40	53.4	3	9	90	0.00	30.123 
10:55	80.3	80.3	80.1	40	53.8	3	9	112	0.00	30.123 
11:00	80.5	80.5	80.2	39	53.2	4	7	90	0.00	30.123 
11:05	80.9	80.9	80.2	36	51.4	3	7	112	0.00	30.123 
11:10	81.1	81.1	80.4	37	52.3	3	7	90	0.00	30.123 
11:15	81.4	81.4	80.8	38	53.3	2	11	68	0.00	30.127 
11:20	82.0	82.0	80.7	33	50.0	3	7	90	0.00	30.127 
11:25	82.2	82.2	80.9	33	50.2	3	5	68	0.00	30.127 
11:30	82.8	82.8	81.1	30	48.2	2	6	90	0.00	30.130 
11:35	83.2	83.2	81.2	28	46.7	2	9	90	0.00	30.130 
11:40	83.0	83.0	81.0	28	46.5	4	9	90	0.00	30.130 
11:45	82.8	82.8	80.9	28	46.3	4	10	90	0.00	30.128 
11:50	83.2	83.2	81.1	27	45.7	2	7	90	0.00	30.128 
11:55	83.8	83.8	81.6	27	46.2	3	7	112	0.00	30.128 
12:00	83.8	83.8	81.6	27	46.2	4	10	90	0.00	30.131 
12:05	83.6	83.6	81.4	27	46.1	3	7	68	0.00	30.131 
12:10	84.0	84.0	81.6	25	44.4	4	9	68	0.00	30.131 
12:15	84.1	84.1	81.7	25	44.4	3	7	90	0.00	30.133 
12:20	84.3	84.3	81.9	26	45.7	2	6	90	0.00	30.133 
12:25	84.7	84.7	82.1	25	45.0	3	9	90	0.00	30.133 
12:30	84.7	84.7	82.1	25	45.0	3	12	68	0.00	30.133 
12:35	84.9	84.9	82.4	26	46.2	1	5	68	0.00	30.133 
12:40	85.3	85.3	82.6	25	45.5	2	6	112	0.00	30.133 
12:45	85.5	85.5	82.8	25	45.6	1	4	135	0.00	30.129 
12:50	85.7	85.7	82.9	25	45.8	3	10	90	0.00	30.129 
12:55	85.3	85.3	82.5	24	44.4	2	6	112	0.00	30.129 
13:00	85.5	85.5	82.8	25	45.6	1	5	112	0.00	30.122 
13:05	86.1	86.1	83.3	25	46.1	1	3	68	0.00	30.122 
13:10	86.3	86.3	83.5	25	46.3	4	10	90	0.00	30.122 
13:15	85.9	85.9	83.0	24	44.9	3	7	90	0.00	30.120 
13:20	85.9	85.9	83.0	24	44.9	3	7	90	0.00	30.120 
13:25	86.1	86.1	83.1	23	43.9	1	5	68	0.00	30.120 
13:30	86.5	86.5	83.4	23	44.3	2	6	90	0.00	30.115 
13:35	86.5	86.5	83.5	24	45.4	3	5	112	0.00	30.115 
13:40	86.5	86.5	83.5	24	45.4	3	12	112	0.00	30.115 
13:45	86.5	86.5	83.5	24	45.4	2	6	112	0.00	30.112 
13:50	86.7	86.7	83.7	24	45.6	2	7	90	0.00	30.112 
13:55	87.2	87.2	84.1	23	44.9	2	9	112	0.00	30.112 
14:00	87.8	87.8	84.7	24	46.5	2	5	112	0.00	30.106 
14:05	88.0	88.0	84.6	21	43.1	3	10	112	0.00	30.106 
14:10	87.6	87.6	84.4	23	45.2	3	8	68	0.00	30.106 
14:15	87.8	87.8	84.6	23	45.4	2	5	112	0.00	30.104 
14:20	87.6	87.6	84.3	22	44.0	2	6	90	0.00	30.104 
14:25	87.6	87.6	84.2	21	42.8	3	6	90	0.00	30.104 
14:30	87.4	87.4	84.1	22	43.9	1	5	45	0.00	30.104 
14:35	87.8	87.8	84.5	22	44.2	3	7	90	0.00	30.104 
14:40	87.6	87.6	84.3	22	44.0	3	7	112	0.00	30.104 
14:45	87.6	87.6	84.3	22	44.0	3	8	90	0.00	30.101 
14:50	87.4	87.4	84.1	22	43.9	2	6	90	0.00	30.101 
14:55	87.6	87.6	84.3	22	44.0	1	4	90	0.00	30.101 
15:00	87.8	87.8	84.4	21	43.0	3	11	90	0.00	30.094 
15:05	87.8	87.8	84.3	20	41.7	3	10	112	0.00	30.094 
15:10	87.8	87.8	84.5	22	44.2	3	8	90	0.00	30.094 
15:15	87.6	87.6	84.2	20	41.5	3	9	90	0.00	30.093 
15:20	87.6	87.6	84.2	21	42.8	1	4	90	0.00	30.093 
15:25	88.0	88.0	84.5	20	41.9	4	9	90	0.00	30.093 
15:30	88.0	88.0	84.5	20	41.9	3	10	112	0.00	30.091 
15:35	87.4	87.4	84.0	20	41.4	4	11	90	0.00	30.091 
15:40	87.2	87.2	83.9	21	42.5	3	11	90	0.00	30.091 
15:45	87.2	87.2	83.8	20	41.2	4	7	90	0.00	30.087 
15:50	87.6	87.6	84.2	20	41.5	2	5	90	0.00	30.087 
15:55	87.8	87.8	84.3	20	41.7	3	7	90	0.00	30.087 
16:00	87.4	87.4	84.1	21	42.6	4	10	90	0.00	30.084 
16:05	87.4	87.4	84.0	20	41.4	3	7	90	0.00	30.084 
16:10	87.6	87.6	84.2	20	41.5	3	11	90	0.00	30.084 
16:15	87.8	87.8	84.3	20	41.7	3	12	90	0.00	30.081 
16:20	88.0	88.0	84.4	19	40.5	3	9	112	0.00	30.081 
16:25	87.8	87.8	84.3	19	40.4	3	8	90	0.00	30.081 
16:30	88.0	88.0	84.4	19	40.5	2	5	112	0.00	30.077 
16:35	88.2	88.2	84.6	19	40.7	2	13	112	0.00	30.077 
16:40	88.0	88.0	84.4	19	40.5	2	6	112	0.00	30.077 
16:45	87.6	87.6	84.1	19	40.2	3	6	112	0.00	30.076 
16:50	87.8	87.8	84.3	20	41.7	1	5	112	0.00	30.076 
16:55	88.0	88.0	84.4	19	40.5	1	6	90	0.00	30.076 
17:00	88.0	88.0	84.4	19	40.5	2	7	112	0.00	30.076 
17:05	87.8	87.8	84.3	20	41.7	2	5	90	0.00	30.076 
17:10	87.8	87.8	84.3	19	40.4	1	5	90	0.00	30.076 
17:15	88.0	88.0	84.4	19	40.5	1	6	90	0.00	30.075 
17:20	87.8	87.8	84.3	19	40.4	2	6	90	0.00	30.075 
17:25	87.6	87.6	84.1	19	40.2	2	4	22	0.00	30.075 
17:30	87.2	87.2	83.8	19	39.9	3	6	90	0.00	30.074 
17:35	87.2	87.2	83.8	20	41.2	1	3	90	0.00	30.074 
17:40	87.2	87.2	83.8	20	41.2	3	9	90	0.00	30.074 
17:45	87.2	87.2	83.8	20	41.2	2	4	112	0.00	30.073 
17:50	87.2	87.2	83.8	20	41.2	2	5	112	0.00	30.073 
17:55	87.2	87.2	83.8	20	41.2	1	4	90	0.00	30.073 
18:00	87.2	87.2	83.8	20	41.2	2	5	112	0.00	30.072 
18:05	87.0	87.0	83.7	20	41.0	3	5	90	0.00	30.072 
18:10	86.3	86.3	83.1	20	40.5	3	7	90	0.00	30.072 
18:15	86.1	86.1	82.9	20	40.3	2	6	90	0.00	30.066 
18:20	85.9	85.9	82.8	21	41.4	2	6	68	0.00	30.066 
18:25	85.9	85.9	82.7	20	40.1	3	6	90	0.00	30.066 
18:30	85.7	85.7	82.6	20	40.0	1	4	68	0.00	30.063 
18:35	85.7	85.7	82.6	20	40.0	1	5	45	0.00	30.063 
18:40	85.5	85.5	82.5	21	41.1	2	6	68	0.00	30.063 
18:45	85.3	85.3	82.3	21	40.9	2	5	90	0.00	30.063 
18:50	85.1	85.1	82.2	21	40.7	2	4	112	0.00	30.063 
18:55	85.1	85.1	82.2	21	40.7	1	3	112	0.00	30.063 
19:00	84.9	84.9	82.1	22	41.8	2	5	112	0.00	30.061 
19:05	84.9	84.9	82.0	21	40.6	2	4	90	0.00	30.061 
19:10	84.7	84.7	81.8	20	39.2	1	4	90	0.00	30.061 
19:15	84.5	84.5	81.8	22	41.5	1	3	90	0.00	30.058 
19:20	84.5	84.5	81.8	23	42.6	1	4	90	0.00	30.058 
19:25	84.5	84.5	81.8	23	42.6	1	5	90	0.00	30.058 
19:30	84.3	84.3	81.9	26	45.7	1	6	90	0.00	30.058 
19:35	84.0	84.0	81.7	27	46.4	3	7	90	0.00	30.058 
19:40	83.8	83.8	81.7	28	47.2	1	3	90	0.00	30.058 
19:45	83.6	83.6	81.5	28	47.0	3	9	90	0.00	30.059 
19:50	83.4	83.4	81.4	28	46.8	2	10	90	0.00	30.059 
19:55	83.2	83.2	81.2	28	46.7	3	7	90	0.00	30.059 
20:00	83.0	83.0	81.0	27	45.5	2	5	90	0.00	30.064 
20:05	82.8	82.8	80.9	28	46.3	2	3	90	0.00	30.064 
20:10	82.8	82.8	80.9	28	46.3	2	6	90	0.00	30.064 
20:15	82.6	82.6	80.8	29	47.1	2	4	45	0.00	30.064 
20:20	82.2	82.2	80.5	29	46.8	1	6	68	0.00	30.064 
20:25	82.0	82.0	80.4	29	46.6	2	5	90	0.00	30.064 
20:30	81.6	81.6	80.1	29	46.2	2	7	90	0.00	30.070 
20:35	81.2	81.2	79.9	30	46.8	2	5	68	0.00	30.070 
20:40	80.9	80.9	79.7	30	46.5	2	5	90	0.00	30.070 
20:45	80.7	80.7	79.6	30	46.4	2	5	90	0.00	30.071 
20:50	80.3	80.3	79.4	31	46.9	1	5	90	0.00	30.071 
20:55	79.9	79.9	79.2	31	46.5	2	4	90	0.00	30.071 
21:00	79.6	79.6	79.0	31	46.3	2	6	90	0.00	30.073 
21:05	79.2	79.2	78.8	31	45.9	2	5	112	0.00	30.073 
21:10	78.8	78.8	78.6	32	46.4	1	4	90	0.00	30.073 
21:15	78.5	78.5	78.5	32	46.2	2	5	90	0.00	30.071 
21:20	78.1	78.1	78.4	33	46.6	1	3	90	0.00	30.071 
21:25	77.7	77.7	78.2	34	47.1	1	4	90	0.00	30.071 
21:30	77.4	77.4	78.1	34	46.8	1	3	90	0.00	30.075 
21:35	77.0	77.0	77.9	34	46.5	1	3	90	0.00	30.075 
21:40	76.7	76.7	77.9	35	47.0	1	4	90	0.00	30.075 
21:45	76.5	76.5	77.8	35	46.8	0	4	90	0.00	30.077 
21:50	76.1	76.1	77.6	35	46.4	2	5	90	0.00	30.077 
21:55	76.0	76.0	77.6	35	46.4	2	4	90	0.00	30.077 
22:00	75.8	75.8	77.5	35	46.2	1	4	68	0.00	30.082 
22:05	75.6	75.6	77.4	35	46.0	1	2	68	0.00	30.082 
22:10	75.4	75.4	77.4	36	46.6	1	5	68	0.00	30.082 
22:15	75.3	75.3	77.4	36	46.5	2	4	68	0.00	30.082 
22:20	75.1	75.1	77.3	36	46.3	2	4	68	0.00	30.082 
22:25	74.9	74.9	74.9	37	46.9	1	3	68	0.00	30.082 
22:30	74.6	74.6	74.6	37	46.6	1	4	68	0.00	30.087 
22:35	74.4	74.4	74.4	38	47.1	1	3	90	0.00	30.087 
22:40	74.0	74.0	74.0	38	46.8	1	2	90	0.00	30.087 
22:45	73.9	73.9	73.9	38	46.7	1	3	90	0.00	30.090 
22:50	73.7	73.7	73.7	39	47.2	1	2	90	0.00	30.090 
22:55	73.5	73.5	73.5	39	47.0	1	4	90	0.00	30.090 
23:00	73.3	73.3	73.3	40	47.5	1	3	90	0.00	30.092 
23:05	73.0	73.0	73.0	40	47.2	1	2	90	0.00	30.092 
23:10	72.8	72.8	72.8	41	47.7	0	2	90	0.00	30.092 
23:15	72.7	72.7	72.7	41	47.6	1	2	90	0.00	30.091 
23:20	72.5	72.5	72.5	42	48.1	1	3	90	0.00	30.091 
23:25	72.3	72.3	72.3	42	47.9	1	3	90	0.00	30.091 
23:30	72.3	72.3	72.3	42	47.9	1	3	90	0.00	30.094 
23:35	72.0	72.0	72.0	43	48.3	0	1	90	0.00	30.094 
23:40	71.8	71.8	71.8	43	48.1	0	2	90	0.00	30.094 
23:45	71.6	71.6	71.6	44	48.5	0	2	90	0.00	30.089 
23:50	71.5	71.5	71.5	44	48.4	1	3	90	0.00	30.089 
23:55	71.5	71.5	71.5	45	49.0	1	2	90	0.00	30.089 

CoCoRaHS
IN-AL-39
A2 Web Hosting
Creative Commons License
GoDaddy
search engine by freefind advanced

loaded 2018-11-17 05:44:36 • last modified 2010-11-18 10:43:29
Privacy PolicyDisclaimer
• wx.awcolley.com is powered by PmWiki v.2002016 •
• all content (unless otherwise noted) © 2018 A W Colley